sensor_id;sensor_type;location;lat;lon;timestamp;P1;durP1;ratioP1;P2;durP2;ratioP2
23668;SDS011;12011;47.422;15.018;2023-03-03T00:00:53;7.57;;;7.50;;
23668;SDS011;12011;47.422;15.018;2023-03-03T00:03:27;7.58;;;7.53;;
23668;SDS011;12011;47.422;15.018;2023-03-03T00:06:00;8.48;;;8.39;;
23668;SDS011;12011;47.422;15.018;2023-03-03T00:08:41;7.74;;;7.62;;
23668;SDS011;12011;47.422;15.018;2023-03-03T00:11:11;8.26;;;8.17;;
23668;SDS011;12011;47.422;15.018;2023-03-03T00:13:43;8.53;;;8.43;;
23668;SDS011;12011;47.422;15.018;2023-03-03T00:16:21;9.28;;;9.17;;
23668;SDS011;12011;47.422;15.018;2023-03-03T00:18:56;9.41;;;9.26;;
23668;SDS011;12011;47.422;15.018;2023-03-03T00:21:29;8.39;;;8.30;;
23668;SDS011;12011;47.422;15.018;2023-03-03T00:24:22;8.51;;;8.38;;
23668;SDS011;12011;47.422;15.018;2023-03-03T00:26:59;9.52;;;9.42;;
23668;SDS011;12011;47.422;15.018;2023-03-03T00:29:45;9.10;;;8.96;;
23668;SDS011;12011;47.422;15.018;2023-03-03T00:32:23;8.39;;;8.26;;
23668;SDS011;12011;47.422;15.018;2023-03-03T00:35:00;8.01;;;7.91;;
23668;SDS011;12011;47.422;15.018;2023-03-03T00:37:56;7.63;;;7.56;;
23668;SDS011;12011;47.422;15.018;2023-03-03T00:40:40;7.46;;;7.39;;
23668;SDS011;12011;47.422;15.018;2023-03-03T00:43:19;7.44;;;7.39;;
23668;SDS011;12011;47.422;15.018;2023-03-03T00:45:59;7.92;;;7.85;;
23668;SDS011;12011;47.422;15.018;2023-03-03T00:48:29;7.90;;;7.84;;
23668;SDS011;12011;47.422;15.018;2023-03-03T00:51:17;8.80;;;8.69;;
23668;SDS011;12011;47.422;15.018;2023-03-03T00:53:57;8.57;;;8.45;;
23668;SDS011;12011;47.422;15.018;2023-03-03T00:56:33;8.03;;;7.96;;
23668;SDS011;12011;47.422;15.018;2023-03-03T00:59:04;8.35;;;8.26;;
23668;SDS011;12011;47.422;15.018;2023-03-03T01:01:36;8.58;;;8.49;;
23668;SDS011;12011;47.422;15.018;2023-03-03T01:04:10;8.31;;;8.29;;
23668;SDS011;12011;47.422;15.018;2023-03-03T01:06:43;8.70;;;8.65;;
23668;SDS011;12011;47.422;15.018;2023-03-03T01:09:20;8.54;;;8.47;;
23668;SDS011;12011;47.422;15.018;2023-03-03T01:12:01;8.62;;;8.53;;
23668;SDS011;12011;47.422;15.018;2023-03-03T01:14:41;8.41;;;8.31;;
23668;SDS011;12011;47.422;15.018;2023-03-03T01:17:25;8.32;;;8.25;;
23668;SDS011;12011;47.422;15.018;2023-03-03T01:20:05;8.17;;;8.11;;
23668;SDS011;12011;47.422;15.018;2023-03-03T01:22:43;9.75;;;9.67;;
23668;SDS011;12011;47.422;15.018;2023-03-03T01:25:19;10.84;;;10.67;;
23668;SDS011;12011;47.422;15.018;2023-03-03T01:27:55;9.93;;;9.84;;
23668;SDS011;12011;47.422;15.018;2023-03-03T01:30:26;9.84;;;9.79;;
23668;SDS011;12011;47.422;15.018;2023-03-03T01:32:57;9.82;;;9.76;;
23668;SDS011;12011;47.422;15.018;2023-03-03T01:35:28;10.51;;;10.40;;
23668;SDS011;12011;47.422;15.018;2023-03-03T01:38:01;11.11;;;10.99;;
23668;SDS011;12011;47.422;15.018;2023-03-03T01:40:41;11.78;;;11.55;;
23668;SDS011;12011;47.422;15.018;2023-03-03T01:43:17;11.88;;;11.67;;
23668;SDS011;12011;47.422;15.018;2023-03-03T01:49:17;12.30;;;12.14;;
23668;SDS011;12011;47.422;15.018;2023-03-03T01:52:03;12.09;;;11.94;;
23668;SDS011;12011;47.422;15.018;2023-03-03T01:54:50;9.84;;;9.70;;
23668;SDS011;12011;47.422;15.018;2023-03-03T01:57:27;9.59;;;9.51;;
23668;SDS011;12011;47.422;15.018;2023-03-03T02:00:14;9.51;;;9.41;;
23668;SDS011;12011;47.422;15.018;2023-03-03T02:02:52;10.34;;;10.23;;
23668;SDS011;12011;47.422;15.018;2023-03-03T02:05:23;10.63;;;10.54;;
23668;SDS011;12011;47.422;15.018;2023-03-03T02:07:54;11.13;;;10.98;;
23668;SDS011;12011;47.422;15.018;2023-03-03T02:10:35;10.83;;;10.73;;
23668;SDS011;12011;47.422;15.018;2023-03-03T02:13:06;10.09;;;10.00;;
23668;SDS011;12011;47.422;15.018;2023-03-03T02:15:43;9.63;;;9.56;;
23668;SDS011;12011;47.422;15.018;2023-03-03T02:18:19;9.12;;;9.02;;
23668;SDS011;12011;47.422;15.018;2023-03-03T02:20:53;8.95;;;8.84;;
23668;SDS011;12011;47.422;15.018;2023-03-03T02:23:37;9.51;;;9.40;;
23668;SDS011;12011;47.422;15.018;2023-03-03T02:26:23;9.56;;;9.48;;
23668;SDS011;12011;47.422;15.018;2023-03-03T02:29:04;9.75;;;9.68;;
23668;SDS011;12011;47.422;15.018;2023-03-03T02:31:39;9.63;;;9.57;;
23668;SDS011;12011;47.422;15.018;2023-03-03T02:34:13;9.82;;;9.71;;
23668;SDS011;12011;47.422;15.018;2023-03-03T02:36:47;9.97;;;9.71;;
23668;SDS011;12011;47.422;15.018;2023-03-03T02:39:20;9.81;;;9.67;;
23668;SDS011;12011;47.422;15.018;2023-03-03T02:42:00;10.39;;;10.27;;
23668;SDS011;12011;47.422;15.018;2023-03-03T02:44:46;9.77;;;9.64;;
23668;SDS011;12011;47.422;15.018;2023-03-03T02:47:17;10.23;;;10.05;;
23668;SDS011;12011;47.422;15.018;2023-03-03T02:49:49;10.60;;;10.42;;
23668;SDS011;12011;47.422;15.018;2023-03-03T02:52:25;10.55;;;10.39;;
23668;SDS011;12011;47.422;15.018;2023-03-03T02:54:55;11.31;;;11.12;;
23668;SDS011;12011;47.422;15.018;2023-03-03T02:57:38;11.04;;;10.86;;
23668;SDS011;12011;47.422;15.018;2023-03-03T03:00:14;11.10;;;11.00;;
23668;SDS011;12011;47.422;15.018;2023-03-03T03:02:46;12.21;;;12.05;;
23668;SDS011;12011;47.422;15.018;2023-03-03T03:05:29;11.98;;;11.77;;
23668;SDS011;12011;47.422;15.018;2023-03-03T03:08:07;10.71;;;10.58;;
23668;SDS011;12011;47.422;15.018;2023-03-03T03:10:39;9.65;;;9.57;;
23668;SDS011;12011;47.422;15.018;2023-03-03T03:13:14;9.74;;;9.66;;
23668;SDS011;12011;47.422;15.018;2023-03-03T03:15:48;9.76;;;9.66;;
23668;SDS011;12011;47.422;15.018;2023-03-03T03:18:19;9.03;;;8.95;;
23668;SDS011;12011;47.422;15.018;2023-03-03T03:20:56;8.78;;;8.70;;
23668;SDS011;12011;47.422;15.018;2023-03-03T03:23:37;9.07;;;8.96;;
23668;SDS011;12011;47.422;15.018;2023-03-03T03:26:14;8.93;;;8.85;;
23668;SDS011;12011;47.422;15.018;2023-03-03T03:28:52;8.58;;;8.46;;
23668;SDS011;12011;47.422;15.018;2023-03-03T03:31:28;8.41;;;8.36;;
23668;SDS011;12011;47.422;15.018;2023-03-03T03:33:59;8.00;;;7.95;;
23668;SDS011;12011;47.422;15.018;2023-03-03T03:36:31;8.64;;;8.59;;
23668;SDS011;12011;47.422;15.018;2023-03-03T03:39:02;8.75;;;8.65;;
23668;SDS011;12011;47.422;15.018;2023-03-03T03:41:34;8.27;;;8.15;;
23668;SDS011;12011;47.422;15.018;2023-03-03T03:44:06;8.55;;;8.46;;
23668;SDS011;12011;47.422;15.018;2023-03-03T03:46:40;8.27;;;8.23;;
23668;SDS011;12011;47.422;15.018;2023-03-03T03:49:12;8.40;;;8.33;;
23668;SDS011;12011;47.422;15.018;2023-03-03T03:51:46;9.17;;;9.08;;
23668;SDS011;12011;47.422;15.018;2023-03-03T03:54:19;8.78;;;8.71;;
23668;SDS011;12011;47.422;15.018;2023-03-03T03:56:54;8.77;;;8.70;;
23668;SDS011;12011;47.422;15.018;2023-03-03T03:59:36;8.87;;;8.81;;
23668;SDS011;12011;47.422;15.018;2023-03-03T04:02:11;8.83;;;8.76;;
23668;SDS011;12011;47.422;15.018;2023-03-03T04:04:51;9.42;;;9.32;;
23668;SDS011;12011;47.422;15.018;2023-03-03T04:07:23;8.84;;;8.72;;
23668;SDS011;12011;47.422;15.018;2023-03-03T04:09:54;9.41;;;9.24;;
23668;SDS011;12011;47.422;15.018;2023-03-03T04:12:24;8.17;;;8.04;;
23668;SDS011;12011;47.422;15.018;2023-03-03T04:15:06;8.52;;;8.41;;
23668;SDS011;12011;47.422;15.018;2023-03-03T04:17:40;8.86;;;8.76;;
23668;SDS011;12011;47.422;15.018;2023-03-03T04:20:13;8.57;;;8.45;;
23668;SDS011;12011;47.422;15.018;2023-03-03T04:22:48;8.22;;;8.06;;
23668;SDS011;12011;47.422;15.018;2023-03-03T04:25:28;8.10;;;7.99;;
23668;SDS011;12011;47.422;15.018;2023-03-03T04:28:05;8.31;;;8.13;;
23668;SDS011;12011;47.422;15.018;2023-03-03T04:30:41;8.16;;;8.06;;
23668;SDS011;12011;47.422;15.018;2023-03-03T04:33:18;8.00;;;7.87;;
23668;SDS011;12011;47.422;15.018;2023-03-03T04:35:52;8.91;;;8.78;;
23668;SDS011;12011;47.422;15.018;2023-03-03T04:38:22;8.69;;;8.58;;
23668;SDS011;12011;47.422;15.018;2023-03-03T04:41:08;8.31;;;8.26;;
23668;SDS011;12011;47.422;15.018;2023-03-03T04:43:39;8.19;;;8.13;;
23668;SDS011;12011;47.422;15.018;2023-03-03T04:46:25;8.03;;;7.97;;
23668;SDS011;12011;47.422;15.018;2023-03-03T04:49:01;7.99;;;7.86;;
23668;SDS011;12011;47.422;15.018;2023-03-03T04:51:36;7.52;;;7.46;;
23668;SDS011;12011;47.422;15.018;2023-03-03T04:54:13;7.87;;;7.79;;
23668;SDS011;12011;47.422;15.018;2023-03-03T04:57:01;8.05;;;7.96;;
23668;SDS011;12011;47.422;15.018;2023-03-03T04:59:41;7.70;;;7.59;;
23668;SDS011;12011;47.422;15.018;2023-03-03T05:02:16;8.65;;;8.56;;
23668;SDS011;12011;47.422;15.018;2023-03-03T05:04:48;8.81;;;8.75;;
23668;SDS011;12011;47.422;15.018;2023-03-03T05:07:28;10.35;;;10.21;;
23668;SDS011;12011;47.422;15.018;2023-03-03T05:10:00;10.67;;;10.57;;
23668;SDS011;12011;47.422;15.018;2023-03-03T05:12:32;7.99;;;7.93;;
23668;SDS011;12011;47.422;15.018;2023-03-03T05:15:09;7.63;;;7.59;;
23668;SDS011;12011;47.422;15.018;2023-03-03T05:17:48;7.09;;;7.04;;
23668;SDS011;12011;47.422;15.018;2023-03-03T05:20:27;7.87;;;7.81;;
23668;SDS011;12011;47.422;15.018;2023-03-03T05:23:00;7.54;;;7.47;;
23668;SDS011;12011;47.422;15.018;2023-03-03T05:25:31;8.10;;;7.96;;
23668;SDS011;12011;47.422;15.018;2023-03-03T05:28:04;7.66;;;7.56;;
23668;SDS011;12011;47.422;15.018;2023-03-03T05:30:39;8.34;;;8.20;;
23668;SDS011;12011;47.422;15.018;2023-03-03T05:33:18;9.43;;;9.31;;
23668;SDS011;12011;47.422;15.018;2023-03-03T05:35:52;9.36;;;9.26;;
23668;SDS011;12011;47.422;15.018;2023-03-03T05:38:27;8.45;;;8.38;;
23668;SDS011;12011;47.422;15.018;2023-03-03T05:41:00;9.17;;;9.09;;
23668;SDS011;12011;47.422;15.018;2023-03-03T05:43:31;9.82;;;9.72;;
23668;SDS011;12011;47.422;15.018;2023-03-03T05:46:03;10.37;;;10.22;;
23668;SDS011;12011;47.422;15.018;2023-03-03T05:48:36;10.68;;;10.50;;
23668;SDS011;12011;47.422;15.018;2023-03-03T05:51:09;8.18;;;8.11;;
23668;SDS011;12011;47.422;15.018;2023-03-03T05:53:44;7.79;;;7.76;;
23668;SDS011;12011;47.422;15.018;2023-03-03T05:56:19;8.36;;;8.29;;
23668;SDS011;12011;47.422;15.018;2023-03-03T05:58:50;7.69;;;7.63;;
23668;SDS011;12011;47.422;15.018;2023-03-03T06:01:27;7.77;;;7.71;;
23668;SDS011;12011;47.422;15.018;2023-03-03T06:04:01;7.49;;;7.46;;
23668;SDS011;12011;47.422;15.018;2023-03-03T06:06:33;7.20;;;7.12;;
23668;SDS011;12011;47.422;15.018;2023-03-03T06:09:03;7.15;;;7.09;;
23668;SDS011;12011;47.422;15.018;2023-03-03T06:11:33;6.90;;;6.83;;
23668;SDS011;12011;47.422;15.018;2023-03-03T06:14:02;6.80;;;6.74;;
23668;SDS011;12011;47.422;15.018;2023-03-03T06:16:31;7.54;;;7.47;;
23668;SDS011;12011;47.422;15.018;2023-03-03T06:19:03;8.73;;;8.66;;
23668;SDS011;12011;47.422;15.018;2023-03-03T06:21:33;8.54;;;8.47;;
23668;SDS011;12011;47.422;15.018;2023-03-03T06:24:03;8.21;;;8.15;;
23668;SDS011;12011;47.422;15.018;2023-03-03T06:26:33;9.15;;;9.05;;
23668;SDS011;12011;47.422;15.018;2023-03-03T06:29:03;11.57;;;11.48;;
23668;SDS011;12011;47.422;15.018;2023-03-03T06:31:32;15.10;;;14.88;;
23668;SDS011;12011;47.422;15.018;2023-03-03T06:34:04;15.31;;;15.14;;
23668;SDS011;12011;47.422;15.018;2023-03-03T06:36:34;15.41;;;15.17;;
23668;SDS011;12011;47.422;15.018;2023-03-03T06:39:03;14.58;;;14.40;;
23668;SDS011;12011;47.422;15.018;2023-03-03T06:41:33;14.05;;;13.90;;
23668;SDS011;12011;47.422;15.018;2023-03-03T06:44:02;14.98;;;14.82;;
23668;SDS011;12011;47.422;15.018;2023-03-03T06:46:32;18.54;;;18.35;;
23668;SDS011;12011;47.422;15.018;2023-03-03T06:49:02;16.98;;;16.83;;
23668;SDS011;12011;47.422;15.018;2023-03-03T06:51:35;17.46;;;17.29;;
23668;SDS011;12011;47.422;15.018;2023-03-03T06:54:10;15.82;;;15.65;;
23668;SDS011;12011;47.422;15.018;2023-03-03T06:56:42;14.02;;;13.93;;
23668;SDS011;12011;47.422;15.018;2023-03-03T06:59:14;13.30;;;13.23;;
23668;SDS011;12011;47.422;15.018;2023-03-03T07:01:46;13.34;;;13.20;;
23668;SDS011;12011;47.422;15.018;2023-03-03T07:04:24;13.16;;;13.08;;
23668;SDS011;12011;47.422;15.018;2023-03-03T07:06:59;13.65;;;13.60;;
23668;SDS011;12011;47.422;15.018;2023-03-03T07:09:42;13.16;;;13.06;;
23668;SDS011;12011;47.422;15.018;2023-03-03T07:12:14;13.09;;;13.01;;
23668;SDS011;12011;47.422;15.018;2023-03-03T07:14:47;13.68;;;13.54;;
23668;SDS011;12011;47.422;15.018;2023-03-03T07:17:20;12.86;;;12.71;;
23668;SDS011;12011;47.422;15.018;2023-03-03T07:19:55;12.58;;;12.46;;
23668;SDS011;12011;47.422;15.018;2023-03-03T07:22:24;10.89;;;10.82;;
23668;SDS011;12011;47.422;15.018;2023-03-03T07:24:58;12.08;;;12.00;;
23668;SDS011;12011;47.422;15.018;2023-03-03T07:27:30;12.34;;;12.23;;
23668;SDS011;12011;47.422;15.018;2023-03-03T07:30:08;11.56;;;11.49;;
23668;SDS011;12011;47.422;15.018;2023-03-03T07:32:53;11.16;;;11.04;;
23668;SDS011;12011;47.422;15.018;2023-03-03T07:35:34;10.61;;;10.51;;
23668;SDS011;12011;47.422;15.018;2023-03-03T07:41:04;10.75;;;10.67;;
23668;SDS011;12011;47.422;15.018;2023-03-03T07:43:42;12.08;;;11.97;;
23668;SDS011;12011;47.422;15.018;2023-03-03T07:46:24;12.00;;;11.90;;
23668;SDS011;12011;47.422;15.018;2023-03-03T07:48:57;10.59;;;10.50;;
23668;SDS011;12011;47.422;15.018;2023-03-03T07:51:35;10.02;;;9.93;;
23668;SDS011;12011;47.422;15.018;2023-03-03T07:54:13;9.87;;;9.77;;
23668;SDS011;12011;47.422;15.018;2023-03-03T07:56:56;9.17;;;9.12;;
23668;SDS011;12011;47.422;15.018;2023-03-03T07:59:41;9.25;;;9.18;;
23668;SDS011;12011;47.422;15.018;2023-03-03T08:02:22;9.93;;;9.82;;
23668;SDS011;12011;47.422;15.018;2023-03-03T08:05:23;9.71;;;9.63;;
23668;SDS011;12011;47.422;15.018;2023-03-03T08:08:09;9.33;;;9.24;;
23668;SDS011;12011;47.422;15.018;2023-03-03T08:10:57;9.38;;;9.27;;
23668;SDS011;12011;47.422;15.018;2023-03-03T08:13:28;7.80;;;7.73;;
23668;SDS011;12011;47.422;15.018;2023-03-03T08:16:17;8.05;;;8.03;;
23668;SDS011;12011;47.422;15.018;2023-03-03T08:18:58;8.48;;;8.45;;
23668;SDS011;12011;47.422;15.018;2023-03-03T08:21:32;8.65;;;8.54;;
23668;SDS011;12011;47.422;15.018;2023-03-03T08:24:06;8.47;;;8.40;;
23668;SDS011;12011;47.422;15.018;2023-03-03T08:26:36;7.35;;;7.29;;
23668;SDS011;12011;47.422;15.018;2023-03-03T08:29:06;7.40;;;7.35;;
23668;SDS011;12011;47.422;15.018;2023-03-03T08:31:36;7.81;;;7.78;;
23668;SDS011;12011;47.422;15.018;2023-03-03T08:34:05;7.40;;;7.38;;
23668;SDS011;12011;47.422;15.018;2023-03-03T08:36:35;6.98;;;6.91;;
23668;SDS011;12011;47.422;15.018;2023-03-03T08:39:07;7.02;;;7.00;;
23668;SDS011;12011;47.422;15.018;2023-03-03T08:41:36;7.22;;;7.18;;
23668;SDS011;12011;47.422;15.018;2023-03-03T08:44:08;6.65;;;6.62;;
23668;SDS011;12011;47.422;15.018;2023-03-03T08:46:38;7.25;;;7.19;;
23668;SDS011;12011;47.422;15.018;2023-03-03T08:49:08;6.96;;;6.93;;
23668;SDS011;12011;47.422;15.018;2023-03-03T08:51:37;6.54;;;6.53;;
23668;SDS011;12011;47.422;15.018;2023-03-03T08:54:09;6.57;;;6.50;;
23668;SDS011;12011;47.422;15.018;2023-03-03T08:56:39;6.74;;;6.66;;
23668;SDS011;12011;47.422;15.018;2023-03-03T08:59:08;5.87;;;5.84;;
23668;SDS011;12011;47.422;15.018;2023-03-03T09:01:38;5.78;;;5.76;;
23668;SDS011;12011;47.422;15.018;2023-03-03T09:04:09;5.63;;;5.60;;
23668;SDS011;12011;47.422;15.018;2023-03-03T09:06:39;5.47;;;5.47;;
23668;SDS011;12011;47.422;15.018;2023-03-03T09:09:11;4.99;;;4.99;;
23668;SDS011;12011;47.422;15.018;2023-03-03T09:11:40;5.29;;;5.29;;
23668;SDS011;12011;47.422;15.018;2023-03-03T09:14:10;5.00;;;5.00;;
23668;SDS011;12011;47.422;15.018;2023-03-03T09:16:43;4.93;;;4.91;;
23668;SDS011;12011;47.422;15.018;2023-03-03T09:19:20;4.84;;;4.84;;
23668;SDS011;12011;47.422;15.018;2023-03-03T09:21:55;4.42;;;4.42;;
23668;SDS011;12011;47.422;15.018;2023-03-03T09:24:34;5.25;;;5.25;;
23668;SDS011;12011;47.422;15.018;2023-03-03T09:27:06;4.85;;;4.85;;
23668;SDS011;12011;47.422;15.018;2023-03-03T09:29:47;5.17;;;5.17;;
23668;SDS011;12011;47.422;15.018;2023-03-03T09:32:21;4.74;;;4.74;;
23668;SDS011;12011;47.422;15.018;2023-03-03T09:34:59;5.10;;;5.10;;
23668;SDS011;12011;47.422;15.018;2023-03-03T09:38:09;4.80;;;4.80;;
23668;SDS011;12011;47.422;15.018;2023-03-03T09:44:16;5.05;;;5.05;;
23668;SDS011;12011;47.422;15.018;2023-03-03T09:47:06;4.62;;;4.61;;
23668;SDS011;12011;47.422;15.018;2023-03-03T09:50:00;5.00;;;5.00;;
23668;SDS011;12011;47.422;15.018;2023-03-03T09:52:43;5.07;;;5.07;;
23668;SDS011;12011;47.422;15.018;2023-03-03T09:55:29;4.78;;;4.78;;
23668;SDS011;12011;47.422;15.018;2023-03-03T09:58:26;4.34;;;4.34;;
23668;SDS011;12011;47.422;15.018;2023-03-03T10:01:18;4.45;;;4.44;;
23668;SDS011;12011;47.422;15.018;2023-03-03T10:04:24;4.25;;;4.25;;
23668;SDS011;12011;47.422;15.018;2023-03-03T10:07:18;4.29;;;4.29;;
23668;SDS011;12011;47.422;15.018;2023-03-03T10:13:12;4.22;;;4.22;;
23668;SDS011;12011;47.422;15.018;2023-03-03T10:16:04;4.28;;;4.28;;
23668;SDS011;12011;47.422;15.018;2023-03-03T10:19:00;4.04;;;4.04;;
23668;SDS011;12011;47.422;15.018;2023-03-03T10:21:38;3.83;;;3.83;;
23668;SDS011;12011;47.422;15.018;2023-03-03T10:24:21;3.89;;;3.89;;
23668;SDS011;12011;47.422;15.018;2023-03-03T10:27:00;3.83;;;3.83;;
23668;SDS011;12011;47.422;15.018;2023-03-03T10:29:47;4.12;;;4.12;;
23668;SDS011;12011;47.422;15.018;2023-03-03T10:32:39;4.19;;;4.19;;
23668;SDS011;12011;47.422;15.018;2023-03-03T10:35:29;4.25;;;4.25;;
23668;SDS011;12011;47.422;15.018;2023-03-03T10:38:25;4.60;;;4.60;;
23668;SDS011;12011;47.422;15.018;2023-03-03T10:41:12;4.45;;;4.45;;
23668;SDS011;12011;47.422;15.018;2023-03-03T10:44:08;4.37;;;4.37;;
23668;SDS011;12011;47.422;15.018;2023-03-03T10:47:11;4.57;;;4.55;;
23668;SDS011;12011;47.422;15.018;2023-03-03T10:50:13;4.45;;;4.44;;
23668;SDS011;12011;47.422;15.018;2023-03-03T10:52:56;4.58;;;4.58;;
23668;SDS011;12011;47.422;15.018;2023-03-03T10:55:45;4.79;;;4.78;;
23668;SDS011;12011;47.422;15.018;2023-03-03T10:58:44;4.88;;;4.86;;
23668;SDS011;12011;47.422;15.018;2023-03-03T11:01:25;4.61;;;4.59;;
23668;SDS011;12011;47.422;15.018;2023-03-03T11:04:26;4.46;;;4.43;;
23668;SDS011;12011;47.422;15.018;2023-03-03T11:07:37;4.49;;;4.49;;
23668;SDS011;12011;47.422;15.018;2023-03-03T11:10:27;4.26;;;4.26;;
23668;SDS011;12011;47.422;15.018;2023-03-03T11:13:17;4.34;;;4.34;;
23668;SDS011;12011;47.422;15.018;2023-03-03T11:16:02;4.61;;;4.59;;
23668;SDS011;12011;47.422;15.018;2023-03-03T11:18:57;4.52;;;4.49;;
23668;SDS011;12011;47.422;15.018;2023-03-03T11:21:49;4.87;;;4.84;;
23668;SDS011;12011;47.422;15.018;2023-03-03T11:24:35;4.66;;;4.65;;
23668;SDS011;12011;47.422;15.018;2023-03-03T11:27:24;4.59;;;4.56;;
23668;SDS011;12011;47.422;15.018;2023-03-03T11:30:29;4.87;;;4.81;;
23668;SDS011;12011;47.422;15.018;2023-03-03T11:33:25;4.25;;;4.24;;
23668;SDS011;12011;47.422;15.018;2023-03-03T11:36:10;4.38;;;4.38;;
23668;SDS011;12011;47.422;15.018;2023-03-03T11:38:53;4.16;;;4.16;;
23668;SDS011;12011;47.422;15.018;2023-03-03T11:41:30;3.88;;;3.88;;
23668;SDS011;12011;47.422;15.018;2023-03-03T11:44:10;3.87;;;3.86;;
23668;SDS011;12011;47.422;15.018;2023-03-03T11:46:50;3.16;;;3.14;;
23668;SDS011;12011;47.422;15.018;2023-03-03T11:49:27;3.21;;;3.19;;
23668;SDS011;12011;47.422;15.018;2023-03-03T11:52:11;3.29;;;3.27;;
23668;SDS011;12011;47.422;15.018;2023-03-03T11:54:56;3.27;;;3.25;;
23668;SDS011;12011;47.422;15.018;2023-03-03T11:57:36;3.71;;;3.71;;
23668;SDS011;12011;47.422;15.018;2023-03-03T12:00:20;3.51;;;3.49;;
23668;SDS011;12011;47.422;15.018;2023-03-03T12:05:54;3.65;;;3.62;;
23668;SDS011;12011;47.422;15.018;2023-03-03T12:11:35;3.70;;;3.70;;
23668;SDS011;12011;47.422;15.018;2023-03-03T12:14:19;2.80;;;2.80;;
23668;SDS011;12011;47.422;15.018;2023-03-03T12:17:04;3.18;;;3.16;;
23668;SDS011;12011;47.422;15.018;2023-03-03T12:19:53;3.11;;;3.10;;
23668;SDS011;12011;47.422;15.018;2023-03-03T12:22:36;2.84;;;2.83;;
23668;SDS011;12011;47.422;15.018;2023-03-03T12:25:22;2.67;;;2.67;;
23668;SDS011;12011;47.422;15.018;2023-03-03T12:28:07;3.25;;;3.25;;
23668;SDS011;12011;47.422;15.018;2023-03-03T12:30:50;3.02;;;3.00;;
23668;SDS011;12011;47.422;15.018;2023-03-03T12:33:46;3.15;;;3.11;;
23668;SDS011;12011;47.422;15.018;2023-03-03T12:39:38;3.07;;;3.04;;
23668;SDS011;12011;47.422;15.018;2023-03-03T12:42:22;3.22;;;3.18;;
23668;SDS011;12011;47.422;15.018;2023-03-03T12:45:16;3.09;;;3.04;;
23668;SDS011;12011;47.422;15.018;2023-03-03T12:48:04;3.03;;;2.98;;
23668;SDS011;12011;47.422;15.018;2023-03-03T12:50:43;2.94;;;2.91;;
23668;SDS011;12011;47.422;15.018;2023-03-03T12:53:31;2.97;;;2.95;;
23668;SDS011;12011;47.422;15.018;2023-03-03T12:56:43;2.70;;;2.67;;
23668;SDS011;12011;47.422;15.018;2023-03-03T12:59:24;2.66;;;2.62;;
23668;SDS011;12011;47.422;15.018;2023-03-03T13:05:16;2.56;;;2.54;;
23668;SDS011;12011;47.422;15.018;2023-03-03T13:07:58;2.32;;;2.30;;
23668;SDS011;12011;47.422;15.018;2023-03-03T13:11:03;2.55;;;2.50;;
23668;SDS011;12011;47.422;15.018;2023-03-03T13:14:09;2.43;;;2.40;;
23668;SDS011;12011;47.422;15.018;2023-03-03T13:17:04;2.62;;;2.58;;
23668;SDS011;12011;47.422;15.018;2023-03-03T13:19:50;2.35;;;2.31;;
23668;SDS011;12011;47.422;15.018;2023-03-03T13:22:34;2.51;;;2.47;;
23668;SDS011;12011;47.422;15.018;2023-03-03T13:25:20;2.53;;;2.50;;
23668;SDS011;12011;47.422;15.018;2023-03-03T13:28:11;2.64;;;2.59;;
23668;SDS011;12011;47.422;15.018;2023-03-03T13:30:51;2.66;;;2.60;;
23668;SDS011;12011;47.422;15.018;2023-03-03T13:33:29;2.44;;;2.39;;
23668;SDS011;12011;47.422;15.018;2023-03-03T13:36:06;2.23;;;2.19;;
23668;SDS011;12011;47.422;15.018;2023-03-03T13:38:41;2.39;;;2.34;;
23668;SDS011;12011;47.422;15.018;2023-03-03T13:41:19;2.68;;;2.59;;
23668;SDS011;12011;47.422;15.018;2023-03-03T13:43:54;2.64;;;2.51;;
23668;SDS011;12011;47.422;15.018;2023-03-03T13:46:32;2.78;;;2.64;;
23668;SDS011;12011;47.422;15.018;2023-03-03T13:49:17;2.44;;;2.30;;
23668;SDS011;12011;47.422;15.018;2023-03-03T13:52:11;2.55;;;2.41;;
23668;SDS011;12011;47.422;15.018;2023-03-03T13:54:50;2.51;;;2.36;;
23668;SDS011;12011;47.422;15.018;2023-03-03T13:57:40;2.83;;;2.66;;
23668;SDS011;12011;47.422;15.018;2023-03-03T14:00:21;2.58;;;2.45;;
23668;SDS011;12011;47.422;15.018;2023-03-03T14:03:06;2.38;;;2.26;;
23668;SDS011;12011;47.422;15.018;2023-03-03T14:05:56;2.35;;;2.26;;
23668;SDS011;12011;47.422;15.018;2023-03-03T14:08:42;2.53;;;2.45;;
23668;SDS011;12011;47.422;15.018;2023-03-03T14:11:26;2.45;;;2.36;;
23668;SDS011;12011;47.422;15.018;2023-03-03T14:14:06;2.44;;;2.35;;
23668;SDS011;12011;47.422;15.018;2023-03-03T14:16:51;2.47;;;2.37;;
23668;SDS011;12011;47.422;15.018;2023-03-03T14:19:30;2.43;;;2.33;;
23668;SDS011;12011;47.422;15.018;2023-03-03T14:22:11;2.53;;;2.46;;
23668;SDS011;12011;47.422;15.018;2023-03-03T14:27:53;2.19;;;2.10;;
23668;SDS011;12011;47.422;15.018;2023-03-03T14:30:33;2.67;;;2.58;;
23668;SDS011;12011;47.422;15.018;2023-03-03T14:33:19;2.67;;;2.57;;
23668;SDS011;12011;47.422;15.018;2023-03-03T14:36:04;2.57;;;2.46;;
23668;SDS011;12011;47.422;15.018;2023-03-03T14:38:45;2.51;;;2.42;;
23668;SDS011;12011;47.422;15.018;2023-03-03T14:41:20;2.65;;;2.58;;
23668;SDS011;12011;47.422;15.018;2023-03-03T14:44:26;2.41;;;2.35;;
23668;SDS011;12011;47.422;15.018;2023-03-03T14:47:10;2.54;;;2.43;;
23668;SDS011;12011;47.422;15.018;2023-03-03T14:49:51;2.59;;;2.49;;
23668;SDS011;12011;47.422;15.018;2023-03-03T14:52:25;2.76;;;2.62;;
23668;SDS011;12011;47.422;15.018;2023-03-03T14:54:58;2.54;;;2.44;;
23668;SDS011;12011;47.422;15.018;2023-03-03T14:57:40;2.44;;;2.36;;
23668;SDS011;12011;47.422;15.018;2023-03-03T15:00:26;2.52;;;2.46;;
23668;SDS011;12011;47.422;15.018;2023-03-03T15:03:01;2.28;;;2.22;;
23668;SDS011;12011;47.422;15.018;2023-03-03T15:05:48;2.41;;;2.36;;
23668;SDS011;12011;47.422;15.018;2023-03-03T15:08:23;2.14;;;2.10;;
23668;SDS011;12011;47.422;15.018;2023-03-03T15:11:13;2.79;;;2.72;;
23668;SDS011;12011;47.422;15.018;2023-03-03T15:13:51;2.39;;;2.32;;
23668;SDS011;12011;47.422;15.018;2023-03-03T15:16:21;2.29;;;2.25;;
23668;SDS011;12011;47.422;15.018;2023-03-03T15:22:14;2.51;;;2.49;;
23668;SDS011;12011;47.422;15.018;2023-03-03T15:25:03;2.56;;;2.51;;
23668;SDS011;12011;47.422;15.018;2023-03-03T15:27:41;2.43;;;2.37;;
23668;SDS011;12011;47.422;15.018;2023-03-03T15:30:22;2.51;;;2.45;;
23668;SDS011;12011;47.422;15.018;2023-03-03T15:33:00;2.49;;;2.43;;
23668;SDS011;12011;47.422;15.018;2023-03-03T15:35:44;2.56;;;2.48;;
23668;SDS011;12011;47.422;15.018;2023-03-03T15:38:32;2.66;;;2.58;;
23668;SDS011;12011;47.422;15.018;2023-03-03T15:41:18;2.67;;;2.59;;
23668;SDS011;12011;47.422;15.018;2023-03-03T15:44:05;2.75;;;2.70;;
23668;SDS011;12011;47.422;15.018;2023-03-03T15:46:50;2.69;;;2.65;;
23668;SDS011;12011;47.422;15.018;2023-03-03T15:49:46;2.71;;;2.65;;
23668;SDS011;12011;47.422;15.018;2023-03-03T15:52:40;2.58;;;2.53;;
23668;SDS011;12011;47.422;15.018;2023-03-03T15:55:29;2.68;;;2.63;;
23668;SDS011;12011;47.422;15.018;2023-03-03T16:01:18;2.66;;;2.61;;
23668;SDS011;12011;47.422;15.018;2023-03-03T16:03:58;2.91;;;2.83;;
23668;SDS011;12011;47.422;15.018;2023-03-03T16:06:36;2.64;;;2.58;;
23668;SDS011;12011;47.422;15.018;2023-03-03T16:09:21;2.91;;;2.84;;
23668;SDS011;12011;47.422;15.018;2023-03-03T16:12:07;2.88;;;2.82;;
23668;SDS011;12011;47.422;15.018;2023-03-03T16:14:59;3.41;;;3.34;;
23668;SDS011;12011;47.422;15.018;2023-03-03T16:17:47;3.45;;;3.41;;